createdAt,value
2023-05-10T04:55:22.237Z,14.13
2023-05-10T05:00:26.087Z,15.27
2023-05-10T05:05:30.567Z,9.75
2023-05-10T05:10:35.325Z,11.23
2023-05-10T05:15:38.751Z,11.73
2023-05-10T05:20:42.214Z,14.38
2023-05-10T05:25:47.255Z,12.13
2023-05-10T05:30:50.712Z,12.88
2023-05-10T05:35:54.126Z,15.10
2023-05-10T05:41:00.045Z,12.10
2023-05-10T05:46:03.456Z,15.50
2023-05-10T05:51:07.432Z,9.43
2023-05-10T05:56:12.333Z,13.65
2023-05-10T06:01:16.035Z,10.40
2023-05-10T06:06:19.449Z,13.00
2023-05-10T06:11:24.948Z,11.18
2023-05-10T06:16:28.416Z,12.20
2023-05-10T06:21:32.108Z,10.30
2023-05-10T06:26:36.886Z,12.70
2023-05-10T06:31:40.625Z,11.25
2023-05-10T06:36:44.315Z,11.68
2023-05-10T06:41:49.229Z,8.57
2023-05-10T06:46:53.594Z,8.32
2023-05-10T06:51:57.936Z,9.60
2023-05-10T06:57:04.732Z,12.35
2023-05-10T07:02:11.098Z,8.48
2023-05-10T07:07:14.651Z,9.18
2023-05-10T07:12:19.980Z,7.20
2023-05-10T07:17:23.474Z,9.63
2023-05-10T07:22:27.801Z,9.48
2023-05-10T07:27:33.586Z,6.68
2023-05-10T07:32:37.430Z,7.68
2023-05-10T07:37:41.770Z,7.57
2023-05-10T07:42:46.977Z,7.72
2023-05-10T07:47:50.707Z,10.13
2023-05-10T07:52:54.187Z,6.88
2023-05-10T07:57:58.971Z,5.22
2023-05-10T08:03:03.730Z,4.50
2023-05-10T08:08:07.350Z,6.85
2023-05-10T08:13:12.940Z,4.80
2023-05-10T08:18:17.531Z,5.20
2023-05-10T08:23:22.243Z,8.23
2023-05-10T08:28:27.087Z,5.38
2023-05-10T08:33:31.140Z,4.47
2023-05-10T08:38:34.723Z,3.85
2023-05-10T08:43:43.080Z,9.07
2023-05-10T08:48:47.419Z,5.45
2023-05-10T08:53:52.797Z,4.75
2023-05-10T08:58:59.030Z,5.18
2023-05-10T09:04:02.738Z,5.10
2023-05-10T09:09:06.377Z,9.32
2023-05-10T09:14:13.473Z,6.38
2023-05-10T09:19:17.487Z,7.80
2023-05-10T09:24:21.335Z,7.90
2023-05-10T09:29:26.393Z,4.78
2023-05-10T09:34:32.870Z,9.55
2023-05-10T09:39:38.887Z,4.68
2023-05-10T09:44:44.568Z,4.97
2023-05-10T09:49:52.082Z,4.85
2023-05-10T09:54:56.508Z,4.18
2023-05-10T10:00:05.976Z,4.78
2023-05-10T10:05:10.367Z,4.82
2023-05-10T10:10:14.727Z,6.47
2023-05-10T10:15:20.275Z,6.55
2023-05-10T10:20:26.096Z,5.32
2023-05-10T10:25:30.283Z,4.03
2023-05-10T10:30:43.413Z,4.57
2023-05-10T10:35:48.534Z,6.13
2023-05-10T10:41:04.390Z,5.95
2023-05-10T10:46:16.392Z,8.07
2023-05-10T10:51:20.314Z,5.30
2023-05-10T10:56:25.285Z,5.00
2023-05-10T11:01:35.177Z,6.78
2023-05-10T11:06:38.790Z,10.05
2023-05-10T11:11:53.221Z,3.90
2023-05-10T11:16:58.496Z,6.10
2023-05-10T11:22:15.228Z,3.30
2023-05-10T11:27:18.655Z,4.25
2023-05-10T11:32:23.951Z,3.72
2023-05-10T11:37:33.304Z,2.53
2023-05-10T11:42:36.721Z,3.33
2023-05-10T11:47:43.789Z,6.43
2023-05-10T11:52:47.221Z,5.15
2023-05-10T11:57:54.251Z,4.40
2023-05-10T12:02:59.121Z,3.17
2023-05-10T12:08:16.353Z,3.42
2023-05-10T12:13:22.013Z,4.25
2023-05-10T12:18:27.320Z,10.73
2023-05-10T12:23:30.781Z,2.63
2023-05-10T12:33:57.321Z,4.22
2023-05-10T12:39:05.752Z,4.53
2023-05-10T12:44:09.334Z,3.00
2023-05-10T12:49:14.227Z,8.10
2023-05-10T12:54:17.934Z,3.92
2023-05-10T12:59:21.357Z,6.57
2023-05-10T13:04:26.408Z,2.47
2023-05-10T13:09:30.633Z,2.78
2023-05-10T13:14:34.349Z,3.03
2023-05-10T13:19:39.197Z,2.58
2023-05-10T13:24:42.629Z,2.72
2023-05-10T13:29:47.462Z,3.22
2023-05-10T13:34:53.338Z,2.75
2023-05-10T13:39:56.762Z,4.53
2023-05-10T13:45:00.279Z,2.35
2023-05-10T13:50:05.645Z,3.83
2023-05-10T13:55:09.913Z,2.35
2023-05-10T14:00:14.431Z,2.78
2023-05-10T14:05:21.006Z,1.70
2023-05-10T14:10:28.813Z,4.45
2023-05-10T14:15:32.235Z,4.10
2023-05-10T14:20:37.097Z,2.88
2023-05-10T14:25:42.002Z,4.70
2023-05-10T14:30:45.497Z,2.97
2023-05-10T14:35:50.973Z,4.03
2023-05-10T14:40:54.629Z,3.55
2023-05-10T14:45:58.050Z,2.38
2023-05-10T14:51:03.015Z,2.00
2023-05-10T14:56:06.686Z,5.40
2023-05-10T15:01:10.315Z,3.72
2023-05-10T15:06:16.555Z,4.35
2023-05-10T15:11:19.941Z,2.95
2023-05-10T15:16:23.446Z,2.90
2023-05-10T15:21:29.613Z,6.57
2023-05-10T15:26:33.650Z,3.50
2023-05-10T15:31:37.401Z,2.42
2023-05-10T15:36:42.174Z,2.97
2023-05-10T15:41:46.096Z,3.47
2023-05-10T15:46:49.745Z,3.33
2023-05-10T15:51:54.952Z,4.35
2023-05-10T15:56:58.364Z,1.50
2023-05-10T16:02:04.062Z,7.80
2023-05-10T16:07:08.909Z,3.72
2023-05-10T16:12:12.605Z,1.58
2023-05-10T16:17:16.421Z,2.35
2023-05-10T16:22:22.356Z,2.13
2023-05-10T16:27:28.653Z,4.47
2023-05-10T16:32:32.139Z,3.33
2023-05-10T16:37:36.937Z,2.17
2023-05-10T16:42:40.952Z,2.35
2023-05-10T16:47:44.555Z,2.75
2023-05-10T16:52:49.368Z,4.45
2023-05-10T16:57:53.132Z,2.67
2023-05-10T17:02:56.579Z,3.42
2023-05-10T17:08:01.821Z,2.75
2023-05-10T17:13:05.292Z,3.78
2023-05-10T17:18:10.308Z,2.30
2023-05-10T17:23:15.136Z,4.47
2023-05-10T17:28:18.548Z,3.33
2023-05-10T17:33:22.210Z,4.85
2023-05-10T17:38:26.998Z,6.30
2023-05-10T17:43:30.685Z,4.05
2023-05-10T17:48:36.522Z,5.60
2023-05-10T17:53:43.040Z,5.05
2023-05-10T17:58:46.832Z,5.82
2023-05-10T18:03:51.855Z,7.50
2023-05-10T18:08:57.172Z,6.30
2023-05-10T18:14:00.862Z,5.80
2023-05-10T18:19:04.469Z,6.70
2023-05-10T18:24:10.308Z,7.50
2023-05-10T18:29:14.028Z,10.48
2023-05-10T18:34:17.577Z,5.88
2023-05-10T18:39:22.682Z,8.18
2023-05-10T18:44:27.084Z,7.68
2023-05-10T18:49:30.721Z,7.57
2023-05-10T18:54:35.508Z,12.07
2023-05-10T18:59:39.089Z,6.03
2023-05-10T19:04:42.567Z,5.22
2023-05-10T19:09:47.440Z,9.45
2023-05-10T19:14:51.281Z,9.82
2023-05-10T19:19:56.322Z,8.93
2023-05-10T19:25:01.580Z,7.32
2023-05-10T19:30:06.124Z,8.80
2023-05-10T19:35:11.578Z,9.48
2023-05-10T19:40:17.452Z,12.75
2023-05-10T19:45:21.148Z,7.88
2023-05-10T19:50:24.760Z,8.23
2023-05-10T19:55:32.025Z,10.10
2023-05-10T20:00:36.388Z,10.15
2023-05-10T20:05:40.369Z,8.05
2023-05-10T20:10:45.187Z,7.53
2023-05-10T20:15:49.007Z,9.02
2023-05-10T20:20:55.423Z,8.43
2023-05-10T20:26:00.455Z,8.30
2023-05-10T20:31:04.115Z,8.73
2023-05-10T20:36:09.638Z,10.40
2023-05-10T20:41:14.377Z,10.02
2023-05-10T20:46:17.856Z,7.90
2023-05-10T20:51:21.628Z,11.00
2023-05-10T20:56:27.186Z,14.68
2023-05-10T21:01:31.767Z,11.73
2023-05-10T21:06:35.239Z,17.38
2023-05-10T21:11:40.058Z,8.38
2023-05-10T21:16:43.732Z,10.32
2023-05-10T21:21:47.441Z,8.63
2023-05-10T21:26:52.227Z,7.22
2023-05-10T21:31:55.938Z,6.32
2023-05-10T21:36:59.595Z,7.93
2023-05-10T21:42:04.552Z,7.40
2023-05-10T21:47:08.269Z,8.82
2023-05-10T21:52:11.754Z,6.63
2023-05-10T21:57:17.096Z,11.50
2023-05-10T22:02:20.468Z,7.80
2023-05-10T22:07:24.000Z,8.82
2023-05-10T22:12:28.811Z,6.68
2023-05-10T22:17:32.344Z,7.25
2023-05-10T22:22:36.578Z,13.85
2023-05-10T22:27:41.481Z,7.90
